Tiempo atmosférico en la estación meteorológica de Córdoba, Prágdena, Córdoba (275 m.)



Fecha
DESCASC
Temp. máxima en grados centígrados (hora)
DESCASC
Temp. mínima en grados centígrados (hora)
DESCASC
Temp. media en grados centígrados
DESCASC
Racha de viento máxima en m/sg (hora)
DESCASC
Velocidad máxima media en intervalos de 10 minutos(hora)
DESCASC
Precipitaciones diarias en mm
DESCASC
Precipitaciones de 00:00 a 06:00 en mm
DESCASC
Precipitaciones de 06:00 a 12:00 en mm
DESCASC
Precipitaciones de 12:00 a 18:00 en mm
DESCASC
Precipitaciones de 18:00 a 24:00 en mm
DESCASC
29-10-2020 26.4 (16:20) 9.2 (04:50) 17.8 6.67 (10:20) 3.61 (10:20) 0 0 0 0 0
28-10-2020 22 (16:10) 6.8 (05:50) 14.4 5.83 (10:30) 4.17 (10:30) 0 0 0 0 0
27-10-2020 18.8 (17:30) 5.2 (00:00) 12 3.89 (14:50) 1.94 (14:20) 0 0 0 0 0
26-10-2020 17.7 (16:00) 8.3 (00:00) 13 10.28 (00:20) 6.67 (00:10) 1.4 1.4 0 0 0
25-10-2020 18.6 (15:30) 9.9 (00:00) 14.3 13.33 (21:20) 6.67 (21:50) 3.4 0 0 0 3.4
24-10-2020 19.7 (17:20) 10.7 (00:00) 15.2 5.83 (17:20) 3.33 (17:30) 0 0 0 0 0
23-10-2020 19.6 (17:30) 12 (00:00) 15.8 8.06 (00:10) 4.17 (00:10) 1.4 1.2 0.2 0 0
22-10-2020 19.4 (18:30) 14 (00:00) 16.7 7.22 (19:00) 4.17 (23:20) 6.2 0 4.6 1.2 0.4
21-10-2020 20.3 (17:10) 15.4 (00:00) 17.8 11.67 (00:20) 7.22 (00:20) 2.6 1 0.8 0.8 0
20-10-2020 30.6 (16:10) 16.7 (00:00) 23.7 16.11 (19:50) 9.17 (20:00) 3.2 0 0 0 3.2
19-10-2020 30.3 (16:20) 10.7 (00:00) 20.5 10.56 (17:20) 6.11 (17:20) 0 0 0 0 0
18-10-2020 26.9 (17:50) 7.3 (00:00) 17.1 7.22 (11:40) 4.72 (10:10) 0 0 0 0 0
17-10-2020 23.5 (17:00) 6.7 (00:00) 15.1 6.11 (01:30) 2.78 (15:50) 0 0 0 0 0
16-10-2020 22.8 (17:00) 7.5 (00:00) 15.1 9.72 (13:50) 4.44 (12:00) 0 0 0 0 0
15-10-2020 23.1 (17:30) 8.2 (00:00) 15.7 5.83 (16:00) 2.78 (23:59) 0 0 0 0 0
14-10-2020 22.8 (17:20) 11.2 (00:00) 17 8.33 (13:40) 4.17 (18:10) 0 0 0 0 0
13-10-2020 27.4 (17:20) 7.5 (00:00) 17.4 5.28 (19:10) 3.06 (01:20) 0 0 0 0 0
12-10-2020 23.1 (17:00) 11.8 (00:00) 17.5 13.61 (10:50) 10 (10:50) 0 0 0 0 0
11-10-2020 26.9 (17:40) 14.8 (00:00) 20.8 11.11 (12:40) 6.67 (12:40) 0 0 0 0 0
10-10-2020 31.1 (17:30) 14.6 (00:00) 22.9 7.22 (16:40) 3.06 (16:40) 0 0 0 0 0
09-10-2020 31 (16:00) 13.2 (00:00) 22.1 4.44 (12:10) 2.78 (08:30) 0 0 0 0 0
08-10-2020 32.1 (17:00) 12.9 (00:00) 22.5 5 (17:10) 3.33 (01:50) 0 0 0 0 0
07-10-2020 31.9 (17:10) 12.6 (00:00) 22.3 6.39 (11:30) 4.17 (11:40) 0 0 0 0 0
06-10-2020 27.6 (18:00) 9.6 (00:00) 18.6 5.56 (16:50) 2.5 (08:20) 0 0 0 0 0
05-10-2020 23.7 (18:20) 9.3 (00:00) 16.5 6.39 (15:10) 3.61 (15:10) 0 0 0 0 0
04-10-2020 22.9 (17:20) 8 (00:00) 15.4 10.83 (16:10) 6.11 (16:10) 0 0 0 0 0
03-10-2020 21.1 (18:20) 7.5 (00:00) 14.3 8.33 (16:10) 5 (00:10) 0 0 0 0 0
02-10-2020 20.3 (00:00) 12 (00:00) 16.1 18.89 (18:10) 11.11 (16:30) 1.2 0 0 1.2 0
01-10-2020 27.2 (18:00) 14.7 (00:00) 21 9.17 (19:00) 5.56 (19:10) 0 0 0 0 0

Gráficas

Temp. máximas Temp. mínimas Temp. medias Precipitaciones Rachas de viento máximas Velocidades máximas media en intervalos de 10 minutos

Datos horarios

Fecha y hora oficial Temperatura (ºC) Velocidad del viento (km/h) Dirección del viento Racha (km/h) Dirección de racha Precipitación (mm) Presión (hPa) Tendencia (hPa) Humedad (%)
2020-10-30 23:00:00 16.5 2 Sudoeste 8 Sur 0 -- -- 64
2020-10-30 22:00:00 17.5 4 Sudoeste 4 Sudoeste 0 -- -- 61
2020-10-30 21:00:00 18.5 2 Sur 5 Sur 0 -- -- 59
2020-10-30 20:00:00 19.7 3 Sudoeste 6 Sudoeste 0 -- -- 54
2020-10-30 19:00:00 21.3 4 Sudoeste 9 Oeste 0 -- -- 49
2020-10-30 18:00:00 24.2 9 Oeste 12 Oeste 0 -- -- 42
2020-10-30 17:00:00 27.1 3 Sudoeste 9 Sudoeste 0 -- -- 34
2020-10-30 16:00:00 27.6 3 Sur 10 Norte 0 -- -- 33
2020-10-30 15:00:00 27.6 4 Nordeste 10 Nordeste 0 -- -- 35
2020-10-30 14:00:00 26 4 Norte 9 Norte 0 -- -- 37
2020-10-30 13:00:00 24.3 5 Norte 14 Norte 0 -- -- 41
2020-10-30 12:00:00 22.4 8 Nordeste 18 Nordeste 0 -- -- 49
2020-10-30 11:00:00 19.7 12 Nordeste 17 Este 0 -- -- 59
2020-10-30 10:00:00 17.1 10 Nordeste 17 Nordeste 0 -- -- 66
2020-10-30 09:00:00 13 8 Norte 11 Norte 0 -- -- 80
2020-10-30 08:00:00 10.8 9 Nordeste 12 Norte 0 -- -- 90
2020-10-30 07:00:00 11.1 0 Calma 9 Este 0 -- -- 88
2020-10-30 06:00:00 11.8 6 Nordeste 11 Nordeste 0 -- -- 84
2020-10-30 05:00:00 12.1 7 Norte 12 Norte 0 -- -- 82
2020-10-30 04:00:00 12.8 9 Norte 11 Norte 0 -- -- 79
2020-10-30 03:00:00 14.4 6 Este 9 Este 0 -- -- 73
2020-10-30 02:00:00 14.1 4 Nordeste 11 Este 0 -- -- 73
2020-10-30 01:00:00 13.7 5 Nordeste 12 Norte 0 -- -- 73
2020-10-30 00:00:00 14.9 5 Norte 8 Norte 0 -- -- 66
2020-10-29 23:00:00 16.1 5 Oeste 10 Norte 0 -- -- 61
2020-10-29 22:00:00 17.1 2 Sudoeste 9 Sudoeste 0 -- -- 59
2020-10-29 21:00:00 17.2 5 Sudoeste 10 Sudoeste 0 -- -- 60
2020-10-29 20:00:00 20.3 4 Nordeste 6 Nordeste 0 -- -- 49
2020-10-29 19:00:00 21.9 3 Norte 5 Norte 0 -- -- 45
2020-10-29 18:00:00 25 3 Norte 10 Nordeste 0 -- -- 38
2020-10-29 17:00:00 26.3 6 Nordeste 18 Nordeste 0 -- -- 33
2020-10-29 16:00:00 26.3 7 Este 14 Nordeste 0 -- -- 33
2020-10-29 15:00:00 25.9 7 Nordeste 15 Norte 0 -- -- 36
2020-10-29 14:00:00 24.9 7 Nordeste 17 Nordeste 0 -- -- 41
2020-10-29 13:00:00 22.9 11 Este 20 Este 0 -- -- 44
2020-10-29 12:00:00 20.3 11 Este 18 Este 0 -- -- 54
2020-10-29 11:00:00 17.7 9 Este 24 Nordeste 0 -- -- 63
2020-10-29 10:00:00 15.1 12 Nordeste 18 Nordeste 0 -- -- 71
2020-10-29 09:00:00 12.2 4 Norte 11 Nordeste 0 -- -- 80
2020-10-29 08:00:00 10.1 7 Nordeste 13 Nordeste 0 -- -- 89
2020-10-29 07:00:00 9.5 9 Nordeste 13 Nordeste 0 -- -- 92
2020-10-29 06:00:00 9.8 9 Nordeste 13 Nordeste 0 -- -- 91
2020-10-29 05:00:00 9.7 8 Nordeste 13 Norte 0 -- -- 93
2020-10-29 04:00:00 10.5 6 Nordeste 12 Norte 0 -- -- 86
2020-10-29 03:00:00 11.1 9 Nordeste 12 Norte 0 -- -- 84
2020-10-29 02:00:00 12.4 8 Nordeste 11 Nordeste 0 -- -- 80
2020-10-29 01:00:00 13.2 6 Nordeste 8 Nordeste 0 -- -- 81
2020-10-29 00:00:00 13.9 6 Nordeste 8 Norte 0 -- -- 77
2020-10-28 23:00:00 14.3 5 Norte 7 Norte 0 -- -- 76
2020-10-28 22:00:00 14.7 2 Nordeste 9 Norte 0 -- -- 75
2020-10-28 21:00:00 15.6 4 Nordeste 7 Norte 0 -- -- 71
2020-10-28 20:00:00 17.2 5 Este 7 Este 0 -- -- 64
2020-10-28 19:00:00 18.2 0 Calma 3 Este 0 -- -- 62
2020-10-28 18:00:00 21 3 Sudeste 4 Este 0 -- -- 51
2020-10-28 17:00:00 21.6 3 Nordeste 8 Norte 0 -- -- 48
2020-10-28 16:00:00 21.6 4 Norte 13 Nordeste 0 -- -- 47
2020-10-28 15:00:00 20.6 5 Nordeste 13 Nordeste 0 -- -- 47
2020-10-28 14:00:00 19.3 8 Norte 16 Nordeste 0 -- -- 49
2020-10-28 13:00:00 17.9 9 Nordeste 18 Nordeste 0 -- -- 53
2020-10-28 12:00:00 16.2 10 Nordeste 19 Nordeste 0 -- -- 56
2020-10-28 11:00:00 13.9 14 Nordeste 21 Este 0 -- -- 62
2020-10-28 10:00:00 12 13 Nordeste 19 Nordeste 0 -- -- 69
2020-10-28 09:00:00 9 5 Nordeste 14 Norte 0 -- -- 87
2020-10-28 08:00:00 7.6 6 Nordeste 12 Nordeste 0 -- -- 85
2020-10-28 07:00:00 7.3 7 Nordeste 13 Nordeste 0 -- -- 89
2020-10-28 06:00:00 6.9 7 Nordeste 10 Norte 0 -- -- 93
2020-10-28 05:00:00 7.8 4 Norte 7 Nordeste 0 -- -- 88
2020-10-28 04:00:00 8.6 5 Nordeste 6 Nordeste 0 -- -- 85
2020-10-28 03:00:00 8.3 2 Este 4 Nordeste 0 -- -- 85
2020-10-28 02:00:00 9.5 2 Nordeste 6 Nordeste 0 -- -- 82
2020-10-28 01:00:00 9.8 3 Norte 6 Este 0 -- -- 80
2020-10-28 00:00:00 10.3 0 Calma 6 Este 0 -- -- 77
2020-10-27 23:00:00 10.8 0 Calma 6 Nordeste 0 -- -- 76
2020-10-27 22:00:00 12.3 4 Nordeste 6 Norte 0 -- -- 67
2020-10-27 21:00:00 13.1 2 Este 3 Este 0 -- -- 63
2020-10-27 20:00:00 14.3 2 Noroeste 5 Sur 0 -- -- 58
2020-10-27 19:00:00 15.1 3 Sudoeste 6 Sudoeste 0 -- -- 54
2020-10-27 18:00:00 17.9 3 Sur 8 Noroeste 0 -- -- 45
2020-10-27 17:00:00 18.6 4 Oeste 12 Noroeste 0 -- -- 40
2020-10-27 16:00:00 18.4 3 Nordeste 14 Oeste 0 -- -- 40
2020-10-27 15:00:00 17.8 5 Sudoeste 14 Sur 0 -- -- 44
2020-10-27 14:00:00 17.7 3 Sudoeste 12 Oeste 0 -- -- 49
2020-10-27 13:00:00 16.2 4 Este 8 Sudeste 0 -- -- 58
2020-10-27 12:00:00 15 0 Calma 9 Noroeste 0 -- -- 64
2020-10-27 11:00:00 14 2 Noroeste 6 Noroeste 0 -- -- 66
2020-10-27 10:00:00 11.3 0 Calma 6 Norte 0 -- -- 75
2020-10-27 09:00:00 7.5 4 Nordeste 6 Norte 0 -- -- 91
2020-10-27 08:00:00 5.5 2 Nordeste 6 Nordeste 0 -- -- 95
2020-10-27 07:00:00 5.6 4 Nordeste 6 Norte 0 -- -- 95
2020-10-27 06:00:00 5.4 0 Calma 3 Este 0 -- -- 94
2020-10-27 05:00:00 6 0 Calma 3 Norte 0 -- -- 92
2020-10-27 04:00:00 6.3 0 Calma 5 Este 0 -- -- 91
2020-10-27 03:00:00 7.2 2 Este 6 Norte 0 -- -- 87
2020-10-27 02:00:00 7.7 0 Calma 2 Norte 0 -- -- 85
2020-10-27 01:00:00 8.4 2 Oeste 6 Sudoeste 0 -- -- 83
2020-10-27 00:00:00 8.4 3 Sudoeste 5 Sudoeste 0 -- -- 83
2020-10-26 23:00:00 9.2 0 Calma 7 Este 0 -- -- 78
2020-10-26 22:00:00 10.9 2 Este 5 Este 0 -- -- 70
2020-10-26 21:00:00 10.8 0 Calma 14 Norte 0 -- -- 72
2020-10-26 20:00:00 12.7 7 Norte 14 Norte 0 -- -- 61
2020-10-26 19:00:00 13.3 8 Noroeste 17 Noroeste 0 -- -- 60
2020-10-26 18:00:00 15.9 5 Noroeste 22 Noroeste 0 -- -- 54
2020-10-26 17:00:00 16.6 8 Noroeste 21 Oeste 0 -- -- 49
2020-10-26 16:00:00 17.7 9 Noroeste 22 Oeste 0 -- -- 45
2020-10-26 15:00:00 16.8 6 Noroeste 22 Noroeste 0 -- -- 51
2020-10-26 14:00:00 15.6 8 Noroeste 14 Oeste 0 -- -- 60
2020-10-26 13:00:00 15 8 Oeste 18 Oeste 0 -- -- 61
2020-10-26 12:00:00 13.8 9 Oeste 23 Noroeste 0 -- -- 68
2020-10-26 11:00:00 13.4 13 Oeste 27 Sudoeste 0 -- -- 77
2020-10-26 10:00:00 12.6 12 Sudoeste 21 Sudoeste 0 -- -- 80
2020-10-26 09:00:00 11.5 6 Sudoeste 12 Sudoeste 0 -- -- 87
2020-10-26 08:00:00 9.3 4 Sudoeste 11 Sudoeste 0 -- -- 95
2020-10-26 07:00:00 10.3 6 Sudoeste 19 Oeste 0 -- -- 92
2020-10-26 06:00:00 11.4 14 Oeste 20 Oeste 0 -- -- 87
2020-10-26 05:00:00 11.9 14 Oeste 24 Oeste 0 -- -- 90
2020-10-26 04:00:00 12.6 12 Sudoeste 20 Sudoeste 0 -- -- 92
2020-10-26 03:00:00 13.2 11 Sudoeste 21 Sudoeste 0 -- -- 97
2020-10-26 02:00:00 13.4 14 Sudoeste 24 Sudoeste 1 -- -- 97
2020-10-26 01:00:00 14 12 Sudoeste 37 Oeste 0.4 -- -- 96
2020-10-26 00:00:00 14.6 22 Sudoeste 38 Oeste 3 -- -- 97
2020-10-25 23:00:00 14.8 19 Sudoeste 44 Sudoeste 0.4 -- -- 96
2020-10-25 22:00:00 16.4 20 Sudoeste 48 Sudoeste 0 -- -- 82
2020-10-25 21:00:00 16.8 23 Sudoeste 36 Sur 0 -- -- 79
2020-10-25 20:00:00 17.1 19 Sudoeste 37 Sudoeste 0 -- -- 75
2020-10-25 19:00:00 17.4 14 Sudoeste 25 Sudoeste 0 -- -- 71
2020-10-25 18:00:00 17.6 17 Sudoeste 31 Sudoeste 0 -- -- 69
2020-10-25 17:00:00 18.1 14 Sudoeste 31 Sudoeste 0 -- -- 65
2020-10-25 16:00:00 18.5 16 Sudoeste 34 Sudoeste 0 -- -- 63
2020-10-25 15:00:00 18.1 19 Sudoeste 31 Sudoeste 0 -- -- 63
2020-10-25 14:00:00 17.9 17 Sudoeste 31 Sudoeste 0 -- -- 67
2020-10-25 13:00:00 15.9 15 Sudoeste 26 Oeste 0 -- -- 79
2020-10-25 12:00:00 16.2 13 Sudoeste 26 Sudoeste 0 -- -- 77
2020-10-25 11:00:00 14.6 6 Sudoeste 17 Sudoeste 0 -- -- 87
2020-10-25 10:00:00 13.1 8 Oeste 13 Oeste 0 -- -- 94
2020-10-25 09:00:00 12.6 7 Sur 12 Sudoeste 0 -- -- 97
2020-10-25 08:00:00 11.8 6 Oeste 10 Sudoeste 0 -- -- 98
2020-10-25 07:00:00 11 3 Sudoeste 14 Sudoeste 0 -- -- 97
2020-10-25 06:00:00 11.6 6 Sudoeste 14 Oeste 0 -- -- 97
2020-10-25 05:00:00 9.9 4 Oeste 8 Sur 0 -- -- 96
2020-10-25 04:00:00 11.4 5 Sur 10 Sur 0 -- -- 97
2020-10-25 03:00:00 11.1 5 Sur 8 Sur 0 -- -- 95
2020-10-25 02:00:00 11 3 Sudoeste 6 Sudeste 0 -- -- 94
2020-10-25 01:00:00 12.5 4 Sudoeste 8 Sur 0 -- -- 89
2020-10-25 00:00:00 13.6 5 Sur 8 Sur 0 -- -- 84
2020-10-24 23:00:00 14.3 5 Sur 6 Sur 0 -- -- 81
2020-10-24 22:00:00 13.9 2 Sudeste 6 Sur 0 -- -- 84
2020-10-24 21:00:00 15.5 6 Sudoeste 9 Sudoeste 0 -- -- 76
2020-10-24 20:00:00 16.1 6 Sudoeste 11 Sudoeste 0 -- -- 74
2020-10-24 19:00:00 18.4 8 Sudoeste 18 Sudoeste 0 -- -- 65
2020-10-24 18:00:00 19.7 10 Sudoeste 21 Oeste 0 -- -- 54
2020-10-24 17:00:00 19.6 10 Oeste 18 Oeste 0 -- -- 54
2020-10-24 16:00:00 18.2 8 Oeste 15 Oeste 0 -- -- 76
2020-10-24 15:00:00 16.9 6 Oeste 14 Oeste 0 -- -- 82
2020-10-24 14:00:00 16.6 4 Sudoeste 11 Oeste 0 -- -- 81
2020-10-24 13:00:00 14.2 5 Noroeste 9 Norte 0 -- -- 93
2020-10-24 12:00:00 13.3 6 Norte 10 Norte 0 -- -- 98
2020-10-24 11:00:00 12.6 6 Norte 9 Norte 0 -- -- 97
2020-10-24 10:00:00 12.1 5 Nordeste 8 Norte 0 -- -- 98
2020-10-24 09:00:00 11.4 5 Norte 9 Norte 0 -- -- 98
2020-10-24 08:00:00 11.7 4 Este 6 Nordeste 0 -- -- 99
2020-10-24 07:00:00 11.2 4 Norte 8 Norte 0 -- -- 98
2020-10-24 06:00:00 11.3 2 Norte 4 Norte 0 -- -- 99
2020-10-24 05:00:00 10.8 3 Este 4 Nordeste 0 -- -- 97
2020-10-24 04:00:00 11.7 2 Norte 5 Norte 0 -- -- 97
2020-10-24 03:00:00 11.4 4 Norte -- -- 0 -- -- 97
2020-10-24 02:00:00 12.1 0 Calma 5 Nordeste 0 -- -- 95
2020-10-24 01:00:00 13.1 3 Nordeste 5 Norte 0 -- -- 94
2020-10-24 00:00:00 13.7 0 Calma 4 Este 0 -- -- 92
2020-10-23 23:00:00 14.6 0 Calma 2 Nordeste 0 -- -- 90
2020-10-23 22:00:00 14.7 2 Este 7 Norte 0 -- -- 88
2020-10-23 21:00:00 15.1 3 Nordeste 14 Norte 0 -- -- 86
2020-10-23 20:00:00 15.4 6 Noroeste 20 Oeste 0 -- -- 83
2020-10-23 19:00:00 18.6 7 Sudoeste 17 Sudoeste 0 -- -- 63
2020-10-23 18:00:00 19.6 11 Sudoeste 20 Sur 0 -- -- 57
2020-10-23 17:00:00 19.3 12 Sudoeste 22 Oeste 0 -- -- 58
2020-10-23 16:00:00 18.3 15 Oeste 23 Oeste 0 -- -- 64
2020-10-23 15:00:00 18.3 14 Oeste 21 Sudoeste 0 -- -- 68
2020-10-23 14:00:00 17.3 7 Oeste 20 Noroeste 0 -- -- 79
2020-10-23 13:00:00 16.6 12 Oeste 17 Oeste 0 -- -- 79
2020-10-23 12:00:00 15.7 11 Oeste 18 Sudoeste 0 -- -- 86
2020-10-23 11:00:00 14.9 9 Sudoeste 15 Sudoeste 0 -- -- 93
2020-10-23 10:00:00 13.6 0 Calma 3 Sur 0 -- -- 99
2020-10-23 09:00:00 12.1 3 Sudeste 5 Sudoeste 0.2 -- -- 99
2020-10-23 08:00:00 12.5 3 Sudoeste 6 Sudoeste 0 -- -- 99
2020-10-23 07:00:00 12.7 3 Sudoeste 7 Sur 0 -- -- 98
2020-10-23 06:00:00 12.9 4 Sur 7 Sur 0 -- -- 98
2020-10-23 05:00:00 13.4 4 Sur 8 Sur 0 -- -- 98
2020-10-23 04:00:00 13.7 6 Sur 13 Sudoeste 0 -- -- 97
2020-10-23 03:00:00 14.4 9 Sudoeste 21 Oeste 1.2 -- -- 96
2020-10-23 02:00:00 14.4 4 Oeste 16 Sudoeste 0 -- -- 94
2020-10-23 01:00:00 14.6 8 Sudoeste 29 Sudoeste 0 -- -- 92
2020-10-23 00:00:00 14.6 11 Sudoeste 25 Sudoeste 0 -- -- 95
2020-10-22 23:00:00 15.2 11 Sudoeste 23 Sudoeste 0 -- -- 93
2020-10-22 22:00:00 15.5 6 Sur 10 Sudoeste 0 -- -- 95
2020-10-22 21:00:00 15.9 3 Este 11 Oeste 0.4 -- -- 95
2020-10-22 20:00:00 16.2 6 Oeste 23 Oeste 0 -- -- 90
2020-10-22 19:00:00 17.2 13 Sudoeste 26 Oeste 0 -- -- 84
2020-10-22 18:00:00 18.3 4 Sudeste 10 Sudeste 0 -- -- 81
2020-10-22 17:00:00 18 5 Sur 10 Sur 0 -- -- 85
2020-10-22 16:00:00 17.3 3 Sudoeste 8 Este 0 -- -- 86
2020-10-22 15:00:00 16.4 4 Nordeste 14 Nordeste 0 -- -- 93
2020-10-22 14:00:00 15.4 10 Este 23 Este 0.6 -- -- 95
2020-10-22 13:00:00 15 12 Nordeste 18 Nordeste 0.6 -- -- 95
2020-10-22 12:00:00 14.7 5 Sudeste 9 Este 1.2 -- -- 96
2020-10-22 11:00:00 14.4 5 Este 9 Este 1.8 -- -- 96
2020-10-22 10:00:00 14.2 4 Nordeste 10 Este 0.4 -- -- 94
2020-10-22 09:00:00 14 4 Norte 13 Sudoeste 0.6 -- -- 94
2020-10-22 08:00:00 14.8 7 Sur 14 Sur 0.6 -- -- 88
2020-10-22 07:00:00 14.6 5 Norte 9 Nordeste 0 -- -- 84
2020-10-22 06:00:00 14.3 9 Nordeste 10 Nordeste 0 -- -- 85
2020-10-22 05:00:00 14.7 4 Norte 8 Este 0 -- -- 84
2020-10-22 04:00:00 15.4 3 Este 8 Este 0 -- -- 79
2020-10-22 03:00:00 15.6 7 Nordeste 8 Nordeste 0 -- -- 86
2020-10-22 02:00:00 15.4 5 Nordeste 9 Nordeste 0 -- -- 90
2020-10-22 01:00:00 15.3 2 Oeste 5 Sur 0 -- -- 91
2020-10-22 00:00:00 15.6 0 Calma 8 Oeste 0 -- -- 89
2020-10-21 23:00:00 16.3 0 Calma 5 Sur 0 -- -- 85
2020-10-21 22:00:00 17.3 3 Este 8 Nordeste 0 -- -- 82
2020-10-21 21:00:00 17.5 0 Calma 6 Nordeste 0 -- -- 84
2020-10-21 20:00:00 18.3 4 Este 8 Sur 0 -- -- 81
2020-10-21 19:00:00 19.2 4 Sur 19 Sur 0 -- -- 73
2020-10-21 18:00:00 20.1 10 Sur 22 Sudoeste 0 -- -- 66
2020-10-21 17:00:00 20.2 16 Sur 27 Sur 0 -- -- 68
2020-10-21 16:00:00 19.9 15 Sur 27 Sur 0 -- -- 71
2020-10-21 15:00:00 19.4 16 Sur 29 Sur 0 -- -- 72
2020-10-21 14:00:00 19.4 13 Sur 21 Sur 0 -- -- 78
2020-10-21 13:00:00 18.3 12 Sudoeste 29 Sudoeste 0.8 -- -- 84
2020-10-21 12:00:00 19.5 18 Sur 26 Sudoeste 0 -- -- 76
2020-10-21 11:00:00 18.6 13 Sur 23 Sur 0 -- -- 79
2020-10-21 10:00:00 17.3 12 Sur 21 Sur 0 -- -- 83
2020-10-21 09:00:00 16 9 Sur 15 Sur 0 -- -- 90
2020-10-21 08:00:00 15.5 10 Sur 22 Sur 0 -- -- 92
2020-10-21 07:00:00 15.8 17 Sur 30 Sur 0.8 -- -- 90
2020-10-21 06:00:00 16.3 11 Sur 22 Sur 0 -- -- 80
2020-10-21 05:00:00 16.4 5 Sur 13 Sur 0 -- -- 80
2020-10-21 04:00:00 16 10 Sur 18 Sur 0 -- -- 83
2020-10-21 03:00:00 15.7 5 Sur 10 Sudoeste 0 -- -- 90
2020-10-21 02:00:00 16 8 Sudoeste 24 Sudoeste 0 -- -- 88
2020-10-21 01:00:00 16.1 16 Sur 42 Sudoeste 1 -- -- 87
2020-10-21 00:00:00 16.8 28 Sur 52 Sudoeste 3.2 -- -- 87
2020-10-20 23:00:00 22.4 27 Sur 51 Sur 0 -- -- 52
2020-10-20 22:00:00 23.6 31 Sur 55 Sur 0 -- -- 42
2020-10-20 21:00:00 24.5 30 Sur 50 Sur 0 -- -- 38
2020-10-20 20:00:00 25.2 33 Sur 58 Sur 0 -- -- 35
2020-10-20 19:00:00 26.4 24 Sur 54 Sur 0 -- -- 28
2020-10-20 18:00:00 26.6 27 Sur 51 Sur 0 -- -- 29
2020-10-20 17:00:00 28.9 31 Sur 53 Sur 0 -- -- 24
2020-10-20 16:00:00 30.5 27 Sur 52 Sur 0 -- -- 22
2020-10-20 15:00:00 30.1 22 Sur 49 Sur 0 -- -- 22
2020-10-20 14:00:00 26.2 6 Noroeste 14 Norte 0 -- -- 31
2020-10-20 13:00:00 25 5 Nordeste 11 Norte 0 -- -- 34
2020-10-20 12:00:00 23.3 2 Oeste 10 Sudoeste 0 -- -- 36
2020-10-20 11:00:00 20.3 2 Este 5 Este 0 -- -- 46
2020-10-20 10:00:00 17.9 3 Nordeste 12 Norte 0 -- -- 53
2020-10-20 09:00:00 17 6 Nordeste 13 Norte 0 -- -- 55
2020-10-20 08:00:00 17.2 9 Norte 18 Norte 0 -- -- 51
2020-10-20 07:00:00 17.3 8 Nordeste 14 Nordeste 0 -- -- 46
2020-10-20 06:00:00 17.6 4 Nordeste 9 Nordeste 0 -- -- 43
2020-10-20 05:00:00 17.6 4 Nordeste 12 Nordeste 0 -- -- 43
2020-10-20 04:00:00 17.4 6 Nordeste 10 Norte 0 -- -- 43
2020-10-20 03:00:00 17.9 9 Nordeste 13 Nordeste 0 -- -- 41
2020-10-20 02:00:00 17.2 6 Norte 12 Nordeste 0 -- -- 41
2020-10-20 01:00:00 18.8 0 Calma 10 Sudoeste 0 -- -- 39
2020-10-20 00:00:00 20 4 Sudoeste 19 Sudoeste 0 -- -- 38
2020-10-19 23:00:00 21.3 10 Sudoeste 19 Sudoeste 0 -- -- 34
2020-10-19 22:00:00 22.6 11 Sudoeste 22 Sudoeste 0 -- -- 31
2020-10-19 21:00:00 23.5 13 Sudoeste 23 Sudoeste 0 -- -- 28
2020-10-19 20:00:00 24.6 13 Sudoeste 24 Sudoeste 0 -- -- 25
2020-10-19 19:00:00 25.9 15 Sudoeste 33 Sur 0 -- -- 23
2020-10-19 18:00:00 27.5 18 Sudoeste 38 Sudoeste 0 -- -- 22
2020-10-19 17:00:00 28.4 19 Sudoeste 29 Sudoeste 0 -- -- 20
2020-10-19 16:00:00 30 5 Sudoeste 14 Oeste 0 -- -- 20
2020-10-19 15:00:00 27.9 5 Oeste 16 Noroeste 0 -- -- 22
2020-10-19 14:00:00 26.1 5 Noroeste 16 Noroeste 0 -- -- 24
2020-10-19 13:00:00 24.5 5 Norte 17 Nordeste 0 -- -- 26
2020-10-19 12:00:00 21.5 10 Nordeste 22 Este 0 -- -- 30
2020-10-19 11:00:00 18.2 16 Nordeste 23 Nordeste 0 -- -- 35
2020-10-19 10:00:00 14.1 9 Nordeste 18 Nordeste 0 -- -- 42
2020-10-19 09:00:00 12.4 7 Nordeste 13 Este 0 -- -- 45
2020-10-19 08:00:00 11.3 9 Nordeste 11 Nordeste 0 -- -- 49
2020-10-19 07:00:00 12 9 Nordeste 14 Nordeste 0 -- -- 48
2020-10-19 06:00:00 11.5 8 Nordeste 14 Nordeste 0 -- -- 50
2020-10-19 05:00:00 12.2 10 Nordeste 15 Nordeste 0 -- -- 47
2020-10-19 04:00:00 11.7 9 Norte 11 Norte 0 -- -- 47
2020-10-19 03:00:00 14.4 4 Nordeste 11 Nordeste 0 -- -- 45
2020-10-19 02:00:00 14.6 5 Nordeste 14 Nordeste 0 -- -- 43
2020-10-19 01:00:00 14.9 5 Norte 8 Norte 0 -- -- 43
2020-10-19 00:00:00 15.7 6 Norte 7 Norte 0 -- -- 42
2020-10-18 23:00:00 17.4 3 Sur 6 Sur 0 -- -- 40
2020-10-18 22:00:00 18.6 5 Sudoeste 11 Sudoeste 0 -- -- 39
2020-10-18 21:00:00 19.5 5 Sur 10 Sur 0 -- -- 33
2020-10-18 20:00:00 21.8 0 Calma 6 Sudoeste 0 -- -- 33
2020-10-18 19:00:00 25.1 5 Sudoeste 15 Oeste 0 -- -- 27
2020-10-18 18:00:00 26.6 5 Sudoeste 14 Sudoeste 0 -- -- 24
2020-10-18 17:00:00 26.5 4 Oeste 18 Sudoeste 0 -- -- 24
2020-10-18 16:00:00 25.4 8 Oeste 20 Oeste 0 -- -- 24
2020-10-18 15:00:00 25.2 6 Oeste 15 Noroeste 0 -- -- 25
2020-10-18 14:00:00 23.8 7 Norte 20 Norte 0 -- -- 28
2020-10-18 13:00:00 21.3 10 Norte 23 Nordeste 0 -- -- 33
2020-10-18 12:00:00 18.3 17 Este 26 Este 0 -- -- 37
2020-10-18 11:00:00 15.3 15 Este 23 Nordeste 0 -- -- 43
2020-10-18 10:00:00 11.8 11 Nordeste 20 Nordeste 0 -- -- 51
2020-10-18 09:00:00 9.2 11 Nordeste 18 Nordeste 0 -- -- 57
2020-10-18 08:00:00 8.1 11 Norte 13 Norte 0 -- -- 57
2020-10-18 07:00:00 9.4 10 Nordeste 14 Nordeste 0 -- -- 56
2020-10-18 06:00:00 9.1 9 Nordeste 12 Nordeste 0 -- -- 54
2020-10-18 05:00:00 10 2 Noroeste 4 Norte 0 -- -- 50
2020-10-18 04:00:00 10.5 0 Calma 4 Norte 0 -- -- 49
2020-10-18 03:00:00 11.5 2 Nordeste 2 Este 0 -- -- 48
2020-10-18 02:00:00 12 0 Calma 5 Nordeste 0 -- -- 47
2020-10-18 01:00:00 13.6 4 Nordeste 8 Nordeste 0 -- -- 43
2020-10-18 00:00:00 13.7 0 Calma 4 Este 0 -- -- 43
2020-10-17 23:00:00 15.2 0 Calma 4 Este 0 -- -- 40
2020-10-17 22:00:00 16 3 Nordeste 4 Nordeste 0 -- -- 37
2020-10-17 21:00:00 17.4 2 Oeste 5 Oeste 0 -- -- 36
2020-10-17 20:00:00 19.3 2 Oeste 5 Sudoeste 0 -- -- 34
2020-10-17 19:00:00 23 0 Calma 9 Noroeste 0 -- -- 28
2020-10-17 18:00:00 23.2 4 Noroeste 18 Noroeste 0 -- -- 27
2020-10-17 17:00:00 23.5 5 Oeste 20 Oeste 0 -- -- 28
2020-10-17 16:00:00 22.4 8 Oeste 18 Oeste 0 -- -- 31
2020-10-17 15:00:00 22 8 Oeste 15 Oeste 0 -- -- 31
2020-10-17 14:00:00 21 6 Oeste 12 Sudoeste 0 -- -- 33
2020-10-17 13:00:00 20.3 4 Norte 10 Este 0 -- -- 35
2020-10-17 12:00:00 18.3 4 Este 9 Nordeste 0 -- -- 39
2020-10-17 11:00:00 14.7 5 Norte 9 Norte 0 -- -- 45
2020-10-17 10:00:00 10.9 5 Nordeste 11 Norte 0 -- -- 51
2020-10-17 09:00:00 7 8 Norte 12 Norte 0 -- -- 64
2020-10-17 08:00:00 8 6 Norte 9 Norte 0 -- -- 61
2020-10-17 07:00:00 9.3 3 Nordeste 6 Este 0 -- -- 63
2020-10-17 06:00:00 9.1 3 Nordeste 6 Norte 0 -- -- 58
2020-10-17 05:00:00 10.3 0 Calma 4 Oeste 0 -- -- 57
2020-10-17 04:00:00 10.6 3 Oeste 8 Sudoeste 0 -- -- 57
2020-10-17 03:00:00 10.9 5 Sudoeste 10 Sur 0 -- -- 49
2020-10-17 02:00:00 11.1 9 Sur 22 Sur 0 -- -- 44
2020-10-17 01:00:00 12.3 2 Sudoeste 3 Sudoeste 0 -- -- 38
2020-10-17 00:00:00 13.4 0 Calma 3 Este 0 -- -- 36
2020-10-16 23:00:00 14.4 0 Calma 3 Sudoeste 0 -- -- 34
2020-10-16 22:00:00 15.6 2 Sudoeste 6 Sur 0 -- -- 33
2020-10-16 21:00:00 17.1 4 Sudoeste 10 Sudoeste 0 -- -- 30
2020-10-16 20:00:00 19.1 9 Sudoeste 15 Sudoeste 0 -- -- 28
2020-10-16 19:00:00 21.7 9 Sudoeste 23 Oeste 0 -- -- 25
2020-10-16 18:00:00 22.4 10 Oeste 18 Oeste 0 -- -- 23
2020-10-16 17:00:00 22.8 5 Noroeste 24 Oeste 0 -- -- 23
2020-10-16 16:00:00 22.2 9 Sudoeste 19 Sudoeste 0 -- -- 24
2020-10-16 15:00:00 21.9 8 Norte 17 Norte 0 -- -- 25
2020-10-16 14:00:00 20.9 9 Nordeste 35 Este 0 -- -- 28
2020-10-16 13:00:00 19.4 13 Nordeste 25 Nordeste 0 -- -- 31
2020-10-16 12:00:00 17.3 16 Nordeste 27 Este 0 -- -- 36
2020-10-16 11:00:00 14.4 11 Nordeste 20 Nordeste 0 -- -- 43
2020-10-16 10:00:00 10.7 8 Nordeste 14 Nordeste 0 -- -- 53
2020-10-16 09:00:00 7.9 9 Nordeste 11 Nordeste 0 -- -- 59
2020-10-16 08:00:00 7.8 8 Nordeste 11 Norte 0 -- -- 58
2020-10-16 07:00:00 8.6 8 Nordeste 12 Nordeste 0 -- -- 56
2020-10-16 06:00:00 9.4 6 Nordeste 9 Norte 0 -- -- 56
2020-10-16 05:00:00 9.7 7 Nordeste 8 Norte 0 -- -- 53
2020-10-16 04:00:00 10.7 5 Nordeste 6 Nordeste 0 -- -- 52
2020-10-16 03:00:00 11.9 4 Sur 7 Sur 0 -- -- 49
2020-10-16 02:00:00 12 3 Sur 13 Sur 0 -- -- 46
2020-10-16 01:00:00 13.2 8 Sur 14 Sudoeste 0 -- -- 41
2020-10-16 00:00:00 14.3 10 Sur 16 Sur 0 -- -- 40
2020-10-15 23:00:00 14.1 3 Este 9 Sudoeste 0 -- -- 38
2020-10-15 22:00:00 15.9 5 Oeste 5 Sudoeste 0 -- -- 37
2020-10-15 21:00:00 18 4 Sudoeste 8 Sudoeste 0 -- -- 34
2020-10-15 20:00:00 19.3 7 Sur 13 Sudoeste 0 -- -- 31
2020-10-15 19:00:00 21.8 6 Sudoeste 12 Noroeste 0 -- -- 28
2020-10-15 18:00:00 22.8 4 Oeste 16 Oeste 0 -- -- 25
2020-10-15 17:00:00 22.1 4 Noroeste 21 Oeste 0 -- -- 26
2020-10-15 16:00:00 21.6 8 Oeste 21 Oeste 0 -- -- 29
2020-10-15 15:00:00 21.6 5 Oeste 15 Oeste 0 -- -- 28
2020-10-15 14:00:00 20.3 2 Norte 12 Sur 0 -- -- 35
2020-10-15 13:00:00 19.3 3 Norte 8 Norte 0 -- -- 39
2020-10-15 12:00:00 17.1 4 Este 9 Nordeste 0 -- -- 45
2020-10-15 11:00:00 15 4 Norte 8 Nordeste 0 -- -- 50
2020-10-15 10:00:00 11.6 3 Nordeste 6 Nordeste 0 -- -- 58
2020-10-15 09:00:00 8.9 0 Calma 4 Norte 0 -- -- 66
2020-10-15 08:00:00 8.9 0 Calma 2 Oeste 0 -- -- 67
2020-10-15 07:00:00 9.1 0 Calma -- -- 0 -- -- 64
2020-10-15 06:00:00 9.5 2 Sudoeste 4 Sudoeste 0 -- -- 60
2020-10-15 05:00:00 10.6 3 Sudoeste 4 Sur 0 -- -- 57
2020-10-15 04:00:00 11.1 3 Sudoeste 5 Sudoeste 0 -- -- 54
2020-10-15 03:00:00 12.3 5 Sudoeste 7 Sudoeste 0 -- -- 53
2020-10-15 02:00:00 12.2 3 Sudeste 4 Sudoeste 0 -- -- 50
2020-10-15 01:00:00 13.8 4 Oeste 6 Sudoeste 0 -- -- 48
2020-10-15 00:00:00 14.9 2 Sur 9 Sur 0 -- -- 45
2020-10-14 23:00:00 16.1 3 Noroeste 11 Oeste 0 -- -- 43
2020-10-14 22:00:00 17.3 6 Noroeste 17 Oeste 0 -- -- 41
2020-10-14 21:00:00 18.2 12 Oeste 19 Oeste 0 -- -- 38
2020-10-14 20:00:00 19.6 13 Oeste 22 Oeste 0 -- -- 36
2020-10-14 19:00:00 21.4 13 Oeste 23 Oeste 0 -- -- 32
2020-10-14 18:00:00 21.9 13 Oeste 26 Oeste 0 -- -- 32
2020-10-14 17:00:00 22.4 10 Oeste 26 Oeste 0 -- -- 32
2020-10-14 16:00:00 21.3 13 Oeste 29 Oeste 0 -- -- 37
2020-10-14 15:00:00 20.5 13 Oeste 28 Oeste 0 -- -- 43
2020-10-14 14:00:00 19.7 12 Oeste 30 Oeste 0 -- -- 42
2020-10-14 13:00:00 18.4 9 Oeste 21 Sudoeste 0 -- -- 51
2020-10-14 12:00:00 17 5 Sudoeste 10 Sudoeste 0 -- -- 58
2020-10-14 11:00:00 15.7 4 Sur 10 Sur 0 -- -- 58
2020-10-14 10:00:00 13.6 4 Sudoeste 10 Sudoeste 0 -- -- 60
2020-10-14 09:00:00 11.3 3 Sur 6 Sur 0 -- -- 62
2020-10-14 08:00:00 11.3 2 Noroeste 12 Sur 0 -- -- 62
2020-10-14 07:00:00 13.4 9 Sudoeste 13 Sur 0 -- -- 56
2020-10-14 06:00:00 13.3 6 Sudoeste 12 Sudoeste 0 -- -- 49
2020-10-14 05:00:00 14.5 5 Sur 14 Sur 0 -- -- 44
2020-10-14 04:00:00 15.5 9 Sudoeste 17 Sur 0 -- -- 42
2020-10-14 03:00:00 15.7 9 Sudoeste 17 Sur 0 -- -- 41
2020-10-14 02:00:00 16.1 11 Sur 17 Sur 0 -- -- 40
2020-10-14 01:00:00 17.4 7 Sur 15 Sudoeste 0 -- -- 40
2020-10-14 00:00:00 18.9 10 Sur 14 Sur 0 -- -- 38
2020-10-13 23:00:00 19.1 7 Sur 10 Sudoeste 0 -- -- 37
2020-10-13 22:00:00 19.9 4 Sur 9 Sur 0 -- -- 35
2020-10-13 21:00:00 20.9 5 Sudoeste 12 Sudoeste 0 -- -- 33
2020-10-13 20:00:00 23.5 7 Sudoeste 19 Sudoeste 0 -- -- 31
2020-10-13 19:00:00 26 9 Sudoeste 18 Sudoeste 0 -- -- 27
2020-10-13 18:00:00 26.8 7 Sudoeste 13 Sudoeste 0 -- -- 27
2020-10-13 17:00:00 26.8 4 Sudoeste 12 Sudoeste 0 -- -- 25
2020-10-13 16:00:00 26 5 Norte 13 Norte 0 -- -- 26
2020-10-13 15:00:00 25 5 Este 15 Nordeste 0 -- -- 27
2020-10-13 14:00:00 23.8 4 Norte 13 Nordeste 0 -- -- 27
2020-10-13 13:00:00 22.2 3 Norte 14 Nordeste 0 -- -- 29
2020-10-13 12:00:00 18.4 9 Nordeste 14 Nordeste 0 -- -- 36
2020-10-13 11:00:00 15.7 8 Este 14 Este 0 -- -- 40
2020-10-13 10:00:00 11.9 6 Norte 12 Nordeste 0 -- -- 47
2020-10-13 09:00:00 8.4 9 Nordeste 13 Norte 0 -- -- 53
2020-10-13 08:00:00 9.9 5 Nordeste 9 Nordeste 0 -- -- 50
2020-10-13 07:00:00 10.4 6 Nordeste 12 Nordeste 0 -- -- 49
2020-10-13 06:00:00 9.8 5 Este 14 Nordeste 0 -- -- 48
2020-10-13 05:00:00 11 8 Nordeste 10 Nordeste 0 -- -- 44
2020-10-13 04:00:00 11.9 4 Nordeste 6 Nordeste 0 -- -- 43
2020-10-13 03:00:00 11.1 5 Nordeste 12 Norte 0 -- -- 42
2020-10-13 02:00:00 12.4 9 Nordeste 14 Norte 0 -- -- 40
2020-10-13 01:00:00 -- -- -- -- -- -- -- -- --
2020-10-13 00:00:00 15.1 9 Nordeste 15 Nordeste 0 -- -- 34
2020-10-12 23:00:00 14.5 6 Este 12 Nordeste 0 -- -- 34
2020-10-12 22:00:00 16.4 7 Nordeste 12 Norte 0 -- -- 32
2020-10-12 21:00:00 17.8 5 Este 10 Nordeste 0 -- -- 29
2020-10-12 20:00:00 19.9 8 Este 18 Nordeste 0 -- -- 26
2020-10-12 19:00:00 22.2 15 Nordeste 24 Nordeste 0 -- -- 24
2020-10-12 18:00:00 -- -- -- -- -- -- -- -- --
2020-10-12 17:00:00 23.1 6 Nordeste 23 Nordeste 0 -- -- 24
2020-10-12 16:00:00 21.9 14 Nordeste 29 Nordeste 0 -- -- 27
2020-10-12 15:00:00 21 15 Nordeste 31 Nordeste 0 -- -- 29
2020-10-12 14:00:00 20.1 18 Nordeste 43 Nordeste 0 -- -- 31
2020-10-12 13:00:00 18.9 26 Nordeste 43 Nordeste 0 -- -- 33
2020-10-12 12:00:00 17.3 28 Nordeste 49 Nordeste 0 -- -- 37
2020-10-12 11:00:00 15.9 34 Nordeste 49 Nordeste 0 -- -- 40
2020-10-12 10:00:00 14.1 25 Nordeste 37 Nordeste 0 -- -- 43
2020-10-12 09:00:00 12.5 19 Nordeste 26 Nordeste 0 -- -- 46
2020-10-12 08:00:00 12.2 19 Nordeste 30 Nordeste 0 -- -- 45
2020-10-12 07:00:00 13.4 20 Nordeste 28 Nordeste 0 -- -- 42
2020-10-12 06:00:00 13.4 17 Nordeste 22 Nordeste 0 -- -- 40
2020-10-12 05:00:00 13.8 8 Nordeste 12 Nordeste 0 -- -- 38
2020-10-12 04:00:00 -- -- -- -- -- -- -- -- --
2020-10-12 03:00:00 15.6 5 Nordeste 15 Nordeste 0 -- -- 32
2020-10-12 02:00:00 15.2 10 Norte 17 Nordeste 0 -- -- 32
2020-10-12 01:00:00 15.5 8 Norte 23 Nordeste 0 -- -- 31
2020-10-12 00:00:00 17.1 6 Nordeste 17 Este 0 -- -- 28
2020-10-11 23:00:00 18.1 13 Este 21 Este 0 -- -- 26
2020-10-11 22:00:00 19.1 13 Nordeste 25 Nordeste 0 -- -- 24
2020-10-11 21:00:00 -- -- -- -- -- -- -- -- --
2020-10-11 20:00:00 -- -- -- -- -- -- -- -- --
2020-10-11 19:00:00 26.2 11 Nordeste 23 Nordeste 0 -- -- 21
2020-10-11 18:00:00 26.9 11 Nordeste 24 Nordeste 0 -- -- 24
2020-10-11 17:00:00 26.7 13 Nordeste 30 Este 0 -- -- 26
2020-10-11 16:00:00 26.6 19 Nordeste 35 Nordeste 0 -- -- 24
2020-10-11 15:00:00 25.5 22 Nordeste 33 Nordeste 0 -- -- 29
2020-10-11 14:00:00 24.4 21 Nordeste 37 Este 0 -- -- 34
2020-10-11 13:00:00 23.4 22 Nordeste 40 Nordeste 0 -- -- 39
2020-10-11 12:00:00 22 18 Nordeste 28 Nordeste 0 -- -- 52
2020-10-11 11:00:00 20.6 15 Nordeste 29 Este 0 -- -- 56
2020-10-11 10:00:00 18.5 13 Este 23 Este 0 -- -- 61
2020-10-11 09:00:00 15.3 6 Nordeste 11 Nordeste 0 -- -- 70
2020-10-11 08:00:00 15.1 7 Nordeste 9 Nordeste 0 -- -- 71
2020-10-11 07:00:00 15.4 5 Nordeste 8 Norte 0 -- -- 71
2020-10-11 06:00:00 16.2 2 Nordeste 3 Nordeste 0 -- -- 69
2020-10-11 05:00:00 17 0 Calma 3 Sudoeste 0 -- -- 66
2020-10-11 04:00:00 17.8 2 Sudoeste 6 Sudoeste 0 -- -- 64
2020-10-11 03:00:00 18.8 5 Sudoeste 12 Sudoeste 0 -- -- 61
2020-10-11 02:00:00 19.5 5 Sudoeste 12 Sudoeste 0 -- -- 57
2020-10-11 01:00:00 20.4 9 Sudoeste 15 Sudoeste 0 -- -- 53
2020-10-11 00:00:00 21.1 9 Sur 13 Sudoeste 0 -- -- 45
2020-10-10 23:00:00 22.2 8 Sur 13 Sudoeste 0 -- -- 41
2020-10-10 22:00:00 23.4 7 Sudoeste 13 Sudoeste 0 -- -- 37
2020-10-10 21:00:00 24.9 5 Sudoeste 9 Sudoeste 0 -- -- 32
2020-10-10 20:00:00 27.1 8 Sudoeste 15 Sudoeste 0 -- -- 29
2020-10-10 19:00:00 29.6 9 Sudoeste 19 Sudoeste 0 -- -- 27
2020-10-10 18:00:00 30.6 11 Oeste 22 Oeste 0 -- -- 26
2020-10-10 17:00:00 30.8 10 Sudoeste 26 Sudoeste 0 -- -- 25
2020-10-10 16:00:00 30.5 9 Oeste 17 Oeste 0 -- -- 28
2020-10-10 15:00:00 30 3 Noroeste 16 Norte 0 -- -- 30
2020-10-10 14:00:00 27.7 7 Noroeste 16 Noroeste 0 -- -- 35
2020-10-10 13:00:00 26.6 4 Este 9 Norte 0 -- -- 38
2020-10-10 12:00:00 24.6 4 Norte 9 Norte 0 -- -- 43
2020-10-10 11:00:00 22 0 Calma 7 Norte 0 -- -- 46
2020-10-10 10:00:00 17.7 4 Norte 10 Norte 0 -- -- 55
2020-10-10 09:00:00 14.9 5 Norte 6 Nordeste 0 -- -- 59
2020-10-10 08:00:00 14.7 2 Oeste 4 Este 0 -- -- 61
2020-10-10 07:00:00 16 0 Calma 5 Nordeste 0 -- -- 57
2020-10-10 06:00:00 16.2 4 Nordeste 5 Nordeste 0 -- -- 54
2020-10-10 05:00:00 16.2 0 Calma 4 Sudeste 0 -- -- 53
2020-10-10 04:00:00 16.5 0 Calma 5 Oeste 0 -- -- 52
2020-10-10 03:00:00 17.5 4 Sudoeste 5 Sudoeste 0 -- -- 47
2020-10-10 02:00:00 18.2 0 Calma 4 Este 0 -- -- 45
2020-10-10 01:00:00 19.6 0 Calma 8 Sudoeste 0 -- -- 44
2020-10-10 00:00:00 20.1 3 Sudoeste 6 Sudoeste 0 -- -- 42
2020-10-09 23:00:00 21.5 3 Sudeste 4 Sudeste 0 -- -- 37
2020-10-09 22:00:00 23.1 4 Norte 8 Norte 0 -- -- 37
2020-10-09 21:00:00 24.5 3 Sudoeste 10 Sur 0 -- -- 35
2020-10-09 20:00:00 26.7 4 Oeste 8 Oeste 0 -- -- 32
2020-10-09 19:00:00 29.8 4 Noroeste 14 Norte 0 -- -- 28
2020-10-09 18:00:00 29.8 6 Noroeste 13 Norte 0 -- -- 28
2020-10-09 17:00:00 30.5 2 Noroeste 14 Sudoeste 0 -- -- 27
2020-10-09 16:00:00 31 3 Nordeste 12 Este 0 -- -- 27
2020-10-09 15:00:00 29.7 3 Oeste 12 Este 0 -- -- 29
2020-10-09 14:00:00 27.6 5 Norte 13 Nordeste 0 -- -- 33
2020-10-09 13:00:00 25.7 7 Nordeste 16 Nordeste 0 -- -- 37
2020-10-09 12:00:00 23.6 8 Nordeste 15 Nordeste 0 -- -- 42
2020-10-09 11:00:00 21.9 6 Norte 12 Nordeste 0 -- -- 46
2020-10-09 10:00:00 18 6 Nordeste 10 Nordeste 0 -- -- 52
2020-10-09 09:00:00 14.7 5 Nordeste 12 Norte 0 -- -- 59
2020-10-09 08:00:00 14 0 Calma 5 Este 0 -- -- 61
2020-10-09 07:00:00 14.4 3 Este 5 Este 0 -- -- 58
2020-10-09 06:00:00 15.9 4 Este 6 Este 0 -- -- 56
2020-10-09 05:00:00 16.5 3 Norte 8 Norte 0 -- -- 55
2020-10-09 04:00:00 16.8 0 Calma 7 Norte 0 -- -- 54
2020-10-09 03:00:00 16.9 6 Norte 10 Norte 0 -- -- 52
2020-10-09 02:00:00 19 4 Oeste 9 Noroeste 0 -- -- 49
2020-10-09 01:00:00 19.1 2 Sur 10 Sudoeste 0 -- -- 44
2020-10-09 00:00:00 21.3 8 Sur 10 Sudoeste 0 -- -- 43
2020-10-08 23:00:00 22.2 9 Sudoeste 14 Sudoeste 0 -- -- 41
2020-10-08 22:00:00 23.3 8 Sudoeste 13 Sudoeste 0 -- -- 38
2020-10-08 21:00:00 25 7 Sudoeste 17 Sudoeste 0 -- -- 33
2020-10-08 20:00:00 27.5 9 Sudoeste 17 Sudoeste 0 -- -- 29
2020-10-08 19:00:00 30 6 Oeste 14 Sudoeste 0 -- -- 26
2020-10-08 18:00:00 31.1 6 Oeste 18 Sudoeste 0 -- -- 24
2020-10-08 17:00:00 32.1 4 Noroeste 15 Oeste 0 -- -- 24
2020-10-08 16:00:00 30.5 7 Oeste 15 Sudoeste 0 -- -- 26
2020-10-08 15:00:00 30.5 5 Sudoeste 14 Norte 0 -- -- 26
2020-10-08 14:00:00 28 6 Norte 13 Norte 0 -- -- 31
2020-10-08 13:00:00 27.7 5 Norte 14 Norte 0 -- -- 31
2020-10-08 12:00:00 25.2 7 Norte 13 Este 0 -- -- 37
2020-10-08 11:00:00 22.3 5 Nordeste 10 Nordeste 0 -- -- 42
2020-10-08 10:00:00 17.7 5 Nordeste 8 Nordeste 0 -- -- 50
2020-10-08 09:00:00 14 6 Nordeste 11 Norte 0 -- -- 56
2020-10-08 08:00:00 12.9 9 Norte 13 Nordeste 0 -- -- 60
2020-10-08 07:00:00 14.5 5 Norte 8 Norte 0 -- -- 52
2020-10-08 06:00:00 14.2 2 Sudeste 3 Este 0 -- -- 53
2020-10-08 05:00:00 15.8 2 Nordeste 6 Este 0 -- -- 50
2020-10-08 04:00:00 16.4 5 Nordeste 6 Norte 0 -- -- 46
2020-10-08 03:00:00 16.9 0 Calma 14 Norte 0 -- -- 46
2020-10-08 02:00:00 17 11 Norte 16 Norte 0 -- -- 42
2020-10-08 01:00:00 20.3 5 Nordeste 8 Nordeste 0 -- -- 33
2020-10-08 00:00:00 19.9 3 Oeste 8 Sudoeste 0 -- -- 33
2020-10-07 23:00:00 21.7 2 Nordeste 7 Este 0 -- -- 31
2020-10-07 22:00:00 23.9 4 Nordeste 6 Nordeste 0 -- -- 29
2020-10-07 21:00:00 25 3 Nordeste 7 Noroeste 0 -- -- 27
2020-10-07 20:00:00 27 4 Noroeste 10 Noroeste 0 -- -- 25
2020-10-07 19:00:00 30.8 6 Noroeste 13 Noroeste 0 -- -- 23
2020-10-07 18:00:00 31.7 5 Norte 15 Norte 0 -- -- 23
2020-10-07 17:00:00 31.3 4 Noroeste 14 Norte 0 -- -- 25
2020-10-07 16:00:00 30.5 6 Norte 21 Este 0 -- -- 28
2020-10-07 15:00:00 29.4 9 Norte 22 Nordeste 0 -- -- 32
2020-10-07 14:00:00 28 11 Nordeste 21 Nordeste 0 -- -- 34
2020-10-07 13:00:00 26.4 8 Este 23 Nordeste 0 -- -- 37
2020-10-07 12:00:00 23.7 15 Nordeste 23 Nordeste 0 -- -- 41
2020-10-07 11:00:00 19.8 10 Nordeste 20 Nordeste 0 -- -- 52
2020-10-07 10:00:00 17.8 10 Este 19 Este 0 -- -- 55
2020-10-07 09:00:00 13.1 10 Norte 14 Norte 0 -- -- 67
2020-10-07 08:00:00 12.6 11 Nordeste 19 Nordeste 0 -- -- 69
2020-10-07 07:00:00 12.8 8 Norte 12 Norte 0 -- -- 62
2020-10-07 06:00:00 14.7 3 Este 6 Nordeste 0 -- -- 56
2020-10-07 05:00:00 14.8 4 Nordeste 9 Nordeste 0 -- -- 54
2020-10-07 04:00:00 15 2 Norte 6 Sudoeste 0 -- -- 51
2020-10-07 03:00:00 16.4 2 Norte 8 Norte 0 -- -- 49
2020-10-07 02:00:00 17.9 3 Norte 5 Nordeste 0 -- -- 45
2020-10-07 01:00:00 17.6 0 Calma 4 Este 0 -- -- 45
2020-10-07 00:00:00 19 0 Calma 5 Sudeste 0 -- -- 41
2020-10-06 23:00:00 19.6 3 Sudoeste 6 Sudeste 0 -- -- 41
2020-10-06 22:00:00 21.2 0 Calma 4 Este 0 -- -- 40
2020-10-06 21:00:00 22.6 3 Este 5 Este 0 -- -- 38
2020-10-06 20:00:00 25.4 4 Nordeste 6 Nordeste 0 -- -- 35
2020-10-06 19:00:00 27.1 4 Nordeste 11 Norte 0 -- -- 33
2020-10-06 18:00:00 27.6 4 Este 12 Nordeste 0 -- -- 31
2020-10-06 17:00:00 27 5 Oeste 20 Noroeste 0 -- -- 32
2020-10-06 16:00:00 26.1 9 Nordeste 17 Norte 0 -- -- 33
2020-10-06 15:00:00 25.2 6 Nordeste 14 Este 0 -- -- 34
2020-10-06 14:00:00 23.8 6 Nordeste 13 Norte 0 -- -- 35
2020-10-06 13:00:00 22.6 5 Nordeste 13 Este 0 -- -- 38
2020-10-06 12:00:00 20.1 6 Nordeste 13 Nordeste 0 -- -- 47
2020-10-06 11:00:00 17.2 5 Nordeste 11 Nordeste 0 -- -- 53
2020-10-06 10:00:00 14.2 4 Norte 7 Norte 0 -- -- 61
2020-10-06 09:00:00 10.9 4 Este 12 Nordeste 0 -- -- 68
2020-10-06 08:00:00 9.7 8 Nordeste 10 Norte 0 -- -- 75
2020-10-06 07:00:00 10 4 Norte 7 Norte 0 -- -- 71
2020-10-06 06:00:00 10.9 3 Noroeste 8 Nordeste 0 -- -- 68
2020-10-06 05:00:00 11.2 5 Nordeste 8 Norte 0 -- -- 63
2020-10-06 04:00:00 11.4 6 Norte 9 Norte 0 -- -- 58
2020-10-06 03:00:00 11.7 3 Oeste 6 Sur 0 -- -- 55
2020-10-06 02:00:00 13.3 3 Nordeste 5 Norte 0 -- -- 50
2020-10-06 01:00:00 14 3 Noroeste 8 Sudoeste 0 -- -- 52
2020-10-06 00:00:00 14.5 3 Este 6 Sur 0 -- -- 46
2020-10-05 23:00:00 15.9 2 Norte 10 Nordeste 0 -- -- 45
2020-10-05 22:00:00 18 4 Nordeste 8 Norte 0 -- -- 42
2020-10-05 21:00:00 18.8 6 Norte 14 Norte 0 -- -- 40
2020-10-05 20:00:00 20.7 3 Noroeste 17 Noroeste 0 -- -- 37
2020-10-05 19:00:00 22.8 8 Noroeste 18 Norte 0 -- -- 35
2020-10-05 18:00:00 23.3 7 Noroeste 22 Oeste 0 -- -- 34
2020-10-05 17:00:00 22 13 Oeste 23 Oeste 0 -- -- 36
2020-10-05 16:00:00 21.4 11 Oeste 23 Oeste 0 -- -- 40
2020-10-05 15:00:00 21.3 8 Noroeste 19 Norte 0 -- -- 41
2020-10-05 14:00:00 20 10 Oeste 21 Norte 0 -- -- 44
2020-10-05 13:00:00 18.2 12 Oeste 20 Oeste 0 -- -- 49
2020-10-05 12:00:00 17.6 8 Noroeste 18 Oeste 0 -- -- 51
2020-10-05 11:00:00 16.1 4 Sudoeste 9 Sur 0 -- -- 60
2020-10-05 10:00:00 12.9 3 Sudoeste 6 Oeste 0 -- -- 77
2020-10-05 09:00:00 9.3 0 Calma 5 Sudoeste 0 -- -- 77
2020-10-05 08:00:00 9.8 0 Calma 4 Sur 0 -- -- 84
2020-10-05 07:00:00 10.2 0 Calma 5 Oeste 0 -- -- 80
2020-10-05 06:00:00 10.7 3 Sudoeste 5 Sur 0 -- -- 79
2020-10-05 05:00:00 11.2 0 Calma 7 Oeste 0 -- -- 79
2020-10-05 04:00:00 12.6 3 Sudoeste 6 Sur 0 -- -- 79
2020-10-05 03:00:00 13.8 3 Sudoeste 6 Sudoeste 0 -- -- 71
2020-10-05 02:00:00 14.6 3 Sudoeste 8 Sudoeste 0 -- -- 70
2020-10-05 01:00:00 15.8 3 Sudoeste 10 Sur 0 -- -- 68
2020-10-05 00:00:00 17 8 Sudoeste 12 Sudoeste 0 -- -- 65
2020-10-04 23:00:00 17.6 6 Sudoeste 12 Sudoeste 0 -- -- 61
2020-10-04 22:00:00 17.8 6 Noroeste 22 Oeste 0 -- -- 61
2020-10-04 21:00:00 19 9 Noroeste 22 Oeste 0 -- -- 59
2020-10-04 20:00:00 21 8 Sudoeste 27 Sudoeste 0 -- -- 46
2020-10-04 19:00:00 21.7 13 Sudoeste 28 Sudoeste 0 -- -- 44
2020-10-04 18:00:00 22.6 14 Oeste 32 Oeste 0 -- -- 42
2020-10-04 17:00:00 22.6 19 Oeste 39 Oeste 0 -- -- 41
2020-10-04 16:00:00 21.2 22 Oeste 39 Oeste 0 -- -- 44
2020-10-04 15:00:00 20.9 17 Sudoeste 33 Oeste 0 -- -- 44
2020-10-04 14:00:00 20.1 13 Sudoeste 27 Sur 0 -- -- 46
2020-10-04 13:00:00 19.3 10 Sudoeste 20 Sur 0 -- -- 48
2020-10-04 12:00:00 17.4 7 Sur 15 Sur 0 -- -- 54
2020-10-04 11:00:00 14.7 7 Sudoeste 13 Sudoeste 0 -- -- 67
2020-10-04 10:00:00 12.7 2 Sudoeste 5 Sudoeste 0 -- -- 73
2020-10-04 09:00:00 8.6 4 Sudoeste 8 Sur 0 -- -- 89
2020-10-04 08:00:00 9.3 5 Sur 8 Sur 0 -- -- 86
2020-10-04 07:00:00 9.3 4 Sudoeste 6 Sudoeste 0 -- -- 88
2020-10-04 06:00:00 9.8 3 Sudoeste 7 Sur 0 -- -- 82
2020-10-04 05:00:00 10.4 4 Sur 8 Sur 0 -- -- 80
2020-10-04 04:00:00 10.8 6 Sur 9 Sur 0 -- -- 78
2020-10-04 03:00:00 11.1 6 Sur 9 Sur 0 -- -- 74
2020-10-04 02:00:00 11.5 7 Sur 10 Sudoeste 0 -- -- 65
2020-10-04 01:00:00 10.6 6 Sudoeste 12 Sudoeste 0 -- -- 60
2020-10-04 00:00:00 12.7 4 Sudoeste 8 Sudoeste 0 -- -- 50
2020-10-03 23:00:00 13.9 3 Sur 5 Sur 0 -- -- 45
2020-10-03 22:00:00 14.3 0 Calma 7 Noroeste 0 -- -- 46
2020-10-03 21:00:00 16.3 4 Noroeste 10 Noroeste 0 -- -- 41
2020-10-03 20:00:00 18.2 3 Noroeste 24 Oeste 0 -- -- 36
2020-10-03 19:00:00 20.4 14 Oeste 27 Oeste 0 -- -- 29
2020-10-03 18:00:00 20.6 16 Sudoeste 30 Sudoeste 0 -- -- 32
2020-10-03 17:00:00 20.6 9 Sudoeste 30 Sur 0 -- -- 35
2020-10-03 16:00:00 19.6 13 Sudoeste 29 Sudoeste 0 -- -- 42
2020-10-03 15:00:00 18 14 Sur 29 Sur 0 -- -- 50
2020-10-03 14:00:00 16.6 15 Sudoeste 30 Sudoeste 0 -- -- 57
2020-10-03 13:00:00 15.6 14 Sudoeste 25 Sur 0 -- -- 61
2020-10-03 12:00:00 13.8 13 Sudoeste 24 Sur 0 -- -- 67
2020-10-03 11:00:00 12.5 14 Sudoeste 23 Sur 0 -- -- 74
2020-10-03 10:00:00 10.4 7 Sudoeste 14 Sur 0 -- -- 80
2020-10-03 09:00:00 8.4 9 Sur 15 Sudoeste 0 -- -- 86
2020-10-03 08:00:00 7.8 9 Sur 16 Sur 0 -- -- 87
2020-10-03 07:00:00 8.1 6 Sudoeste 14 Sudoeste 0 -- -- 85
2020-10-03 06:00:00 8.6 9 Sudoeste 16 Sudoeste 0 -- -- 83
2020-10-03 05:00:00 9.1 9 Sur 18 Sur 0 -- -- 82
2020-10-03 04:00:00 9.6 7 Sur 13 Sur 0 -- -- 80
2020-10-03 03:00:00 9.9 5 Sur 13 Sur 0 -- -- 80
2020-10-03 02:00:00 10.8 9 Sur 14 Sudoeste 0 -- -- 76
2020-10-03 01:00:00 11.1 9 Sudoeste 24 Sudoeste 0 -- -- 75
2020-10-03 00:00:00 12.1 15 Oeste 22 Sudoeste 0 -- -- 74
2020-10-02 23:00:00 12.8 14 Oeste 24 Oeste 0 -- -- 71
2020-10-02 22:00:00 13.7 14 Oeste 39 Oeste 0 -- -- 69
2020-10-02 21:00:00 14.6 21 Oeste 38 Oeste 0 -- -- 68
2020-10-02 20:00:00 15.9 19 Oeste 44 Oeste 0 -- -- 65
2020-10-02 19:00:00 16.3 24 Oeste 68 Oeste 0 -- -- 71
2020-10-02 18:00:00 18.5 36 Oeste 64 Oeste 0 -- -- 73
2020-10-02 17:00:00 18.6 39 Oeste 63 Oeste 0.6 -- -- 79
2020-10-02 16:00:00 18.9 34 Sudoeste 67 Sudoeste 0.2 -- -- 92
2020-10-02 15:00:00 19.2 35 Sudoeste 62 Sudoeste 0.4 -- -- 85
2020-10-02 14:00:00 18.5 29 Sudoeste 53 Sudoeste 0 -- -- 83
2020-10-02 13:00:00 18.3 32 Sudoeste 57 Sur 0 -- -- 75
2020-10-02 12:00:00 17.9 31 Sudoeste 54 Sudoeste 0 -- -- 77
2020-10-02 11:00:00 16.5 25 Sudoeste 42 Sur 0 -- -- 76
2020-10-02 10:00:00 15.3 21 Sudoeste 36 Sur 0 -- -- 76
2020-10-02 09:00:00 14.9 16 Sudoeste 30 Sudoeste 0 -- -- 77
2020-10-02 08:00:00 15 15 Sudoeste 29 Sudoeste 0 -- -- 77
2020-10-02 07:00:00 15.2 13 Sur 20 Sur 0 -- -- 78
2020-10-02 06:00:00 15.5 7 Sudoeste 17 Sur 0 -- -- 80
2020-10-02 05:00:00 16.5 9 Sur 15 Sur 0 -- -- 80
2020-10-02 04:00:00 16.9 9 Sudoeste 23 Sudoeste 0 -- -- 80
2020-10-02 03:00:00 17.6 11 Sudoeste 20 Sudoeste 0 -- -- 76
2020-10-02 02:00:00 18.3 13 Sudoeste 25 Sudoeste 0 -- -- 73
2020-10-02 01:00:00 19.1 13 Sudoeste 23 Sudoeste 0 -- -- 66
2020-10-02 00:00:00 20.3 8 Sur 18 Sudoeste 0 -- -- 60
2020-10-01 23:00:00 21.2 12 Sudoeste 30 Sudoeste 0 -- -- 61
2020-10-01 22:00:00 22.7 18 Sudoeste 31 Sudoeste 0 -- -- 52
2020-10-01 21:00:00 23.5 10 Sudoeste 23 Sur 0 -- -- 40
2020-10-01 20:00:00 24.9 14 Sudoeste 31 Sudoeste 0 -- -- 37
2020-10-01 19:00:00 26.1 19 Sudoeste 33 Oeste 0 -- -- 36
2020-10-01 18:00:00 27.2 15 Sudoeste 30 Sudoeste 0 -- -- 32
2020-10-01 17:00:00 27.1 14 Sur 28 Oeste 0 -- -- 34
2020-10-01 16:00:00 26 15 Sudoeste 28 Sudoeste 0 -- -- 34
2020-10-01 15:00:00 25 11 Sudoeste 28 Oeste 0 -- -- 40
2020-10-01 14:00:00 22.9 15 Sur 26 Sudoeste 0 -- -- 58
2020-10-01 13:00:00 21.2 12 Sudoeste 24 Oeste 0 -- -- 67
2020-10-01 12:00:00 19.4 14 Sudoeste 26 Sur 0 -- -- 77
2020-10-01 11:00:00 18.8 10 Sudoeste 19 Sudoeste 0 -- -- 79
2020-10-01 10:00:00 16.9 3 Sur 8 Sur 0 -- -- 78
2020-10-01 09:00:00 15 3 Oeste 8 Noroeste 0 -- -- 83
2020-10-01 08:00:00 15.4 5 Sur 9 Sur 0 -- -- 80
2020-10-01 07:00:00 16.4 6 Sur 8 Sur 0 -- -- 79
2020-10-01 06:00:00 16.8 5 Sudoeste 8 Sur 0 -- -- 76
2020-10-01 05:00:00 17.6 6 Sudoeste 10 Sur 0 -- -- 72
2020-10-01 04:00:00 18.5 6 Sudoeste 13 Sudoeste 0 -- -- 69
2020-10-01 03:00:00 18.6 5 Sudoeste 10 Sudoeste 0 -- -- 66
2020-10-01 02:00:00 19.9 5 Sudoeste 13 Sur 0 -- -- 59
2020-10-01 01:00:00 20.9 9 Sur 17 Sudoeste 0 -- -- 52
2020-10-01 00:00:00 21.2 6 Sur 11 Sur 0 -- -- 44